createdAt,value
2023-05-20T00:02:13.288Z,4.40
2023-05-20T00:04:42.110Z,4.53
2023-05-20T00:07:09.799Z,4.30
2023-05-20T00:09:39.452Z,4.38
2023-05-20T00:12:07.215Z,4.78
2023-05-20T00:14:34.632Z,4.40
2023-05-20T00:17:02.056Z,4.70
2023-05-20T00:19:29.554Z,4.78
2023-05-20T00:21:58.049Z,4.95
2023-05-20T00:24:25.937Z,4.50
2023-05-20T00:26:53.815Z,4.25
2023-05-20T00:29:24.081Z,4.65
2023-05-20T00:31:51.488Z,4.20
2023-05-20T00:34:18.924Z,4.63
2023-05-20T00:36:46.269Z,4.70
2023-05-20T00:39:13.641Z,4.72
2023-05-20T00:41:41.141Z,4.57
2023-05-20T00:44:08.459Z,4.20
2023-05-20T00:46:36.825Z,4.40
2023-05-20T00:49:04.805Z,4.75
2023-05-20T00:51:32.548Z,3.92
2023-05-20T00:53:59.889Z,4.00
2023-05-20T00:56:27.309Z,4.40
2023-05-20T00:58:55.056Z,4.35
2023-05-20T01:01:22.556Z,4.38
2023-05-20T01:03:50.124Z,4.43
2023-05-20T01:06:17.538Z,4.55
2023-05-20T01:08:44.958Z,4.75
2023-05-20T01:11:22.363Z,4.07
2023-05-20T01:13:57.287Z,4.38
2023-05-20T01:16:25.307Z,3.65
2023-05-20T01:18:55.933Z,4.00
2023-05-20T01:21:24.087Z,3.83
2023-05-20T01:23:51.798Z,4.28
2023-05-20T01:26:19.573Z,4.20
2023-05-20T01:28:47.073Z,4.28
2023-05-20T01:31:23.952Z,4.32
2023-05-20T01:33:58.024Z,4.13
2023-05-20T01:36:27.609Z,4.20
2023-05-20T01:38:56.060Z,3.80
2023-05-20T01:41:26.609Z,3.55
2023-05-20T01:43:54.605Z,4.18
2023-05-20T01:46:22.106Z,4.10
2023-05-20T01:48:49.466Z,3.80
2023-05-20T01:51:17.873Z,3.92
2023-05-20T01:53:45.327Z,3.40
2023-05-20T01:56:12.727Z,3.70
2023-05-20T01:58:40.512Z,4.00
2023-05-20T02:01:08.779Z,3.97
2023-05-20T02:03:36.249Z,3.88
2023-05-20T02:06:03.780Z,4.03
2023-05-20T02:08:31.201Z,4.47
2023-05-20T02:11:00.558Z,3.80
2023-05-20T02:13:28.401Z,4.03
2023-05-20T02:15:56.494Z,3.95
2023-05-20T02:18:26.772Z,3.90
2023-05-20T02:20:54.215Z,4.30
2023-05-20T02:23:21.743Z,4.65
2023-05-20T02:25:49.187Z,4.45
2023-05-20T02:28:17.176Z,4.15
2023-05-20T02:30:44.508Z,4.13
2023-05-20T02:33:12.442Z,4.22
2023-05-20T02:35:40.450Z,4.18
2023-05-20T02:38:07.746Z,4.35
2023-05-20T02:40:37.607Z,4.88
2023-05-20T02:43:05.301Z,4.43
2023-05-20T02:45:35.144Z,4.13
2023-05-20T02:48:02.784Z,4.47
2023-05-20T02:50:33.026Z,4.10
2023-05-20T02:53:00.456Z,4.50
2023-05-20T02:55:28.391Z,4.28
2023-05-20T02:57:56.239Z,4.13
2023-05-20T03:00:24.909Z,4.28
2023-05-20T03:02:52.338Z,4.25
2023-05-20T03:05:19.742Z,4.68
2023-05-20T03:07:48.843Z,4.20
2023-05-20T03:10:16.394Z,4.13
2023-05-20T03:12:44.986Z,4.22
2023-05-20T03:15:12.620Z,4.53
2023-05-20T03:17:39.959Z,4.35
2023-05-20T03:20:07.999Z,4.50
2023-05-20T03:22:35.380Z,4.68
2023-05-20T03:25:02.748Z,4.50
2023-05-20T03:27:30.060Z,4.55
2023-05-20T03:29:57.927Z,4.65
2023-05-20T03:32:25.490Z,4.15
2023-05-20T03:34:54.550Z,4.50
2023-05-20T03:37:22.013Z,4.55
2023-05-20T03:39:49.288Z,4.85
2023-05-20T03:42:16.995Z,4.63
2023-05-20T03:44:44.488Z,5.18
2023-05-20T03:47:11.977Z,4.85
2023-05-20T03:49:41.089Z,4.90
2023-05-20T03:52:08.456Z,5.60
2023-05-20T03:54:36.751Z,4.88
2023-05-20T03:57:05.149Z,4.68
2023-05-20T03:59:32.508Z,5.22
2023-05-20T04:02:00.023Z,4.50
2023-05-20T04:04:27.393Z,4.97
2023-05-20T04:06:54.786Z,4.93
2023-05-20T04:09:22.877Z,5.93
2023-05-20T04:11:50.230Z,5.00
2023-05-20T04:14:17.556Z,5.13
2023-05-20T04:16:45.854Z,5.50
2023-05-20T04:19:13.326Z,5.20
2023-05-20T04:21:43.309Z,5.63
2023-05-20T04:24:11.088Z,5.18
2023-05-20T04:26:39.829Z,4.97
2023-05-20T04:29:07.207Z,5.55
2023-05-20T04:31:36.311Z,5.05
2023-05-20T04:34:04.359Z,5.25
2023-05-20T04:36:32.460Z,5.07
2023-05-20T04:39:01.914Z,5.15
2023-05-20T04:41:29.693Z,4.97
2023-05-20T04:44:01.471Z,5.20
2023-05-20T04:46:28.913Z,5.60
2023-05-20T04:48:56.294Z,5.25
2023-05-20T04:51:23.939Z,4.97
2023-05-20T04:53:52.471Z,4.68
2023-05-20T04:56:19.842Z,4.80
2023-05-20T04:58:47.432Z,4.95
2023-05-20T05:01:14.824Z,5.13
2023-05-20T05:03:43.183Z,5.57
2023-05-20T05:06:10.879Z,5.50
2023-05-20T05:08:38.289Z,5.00
2023-05-20T05:11:06.930Z,4.93
2023-05-20T05:13:34.418Z,5.50
2023-05-20T05:16:02.768Z,4.72
2023-05-20T05:18:31.971Z,5.65
2023-05-20T05:21:04.585Z,5.40
2023-05-20T05:23:33.450Z,5.10
2023-05-20T05:26:00.983Z,5.30
2023-05-20T05:28:28.631Z,4.82
2023-05-20T05:30:56.816Z,5.07
2023-05-20T05:33:24.463Z,4.70
2023-05-20T05:35:51.966Z,5.03
2023-05-20T05:38:19.425Z,4.88
2023-05-20T05:40:47.558Z,5.38
2023-05-20T05:43:16.291Z,5.18
2023-05-20T05:45:45.120Z,5.38
2023-05-20T05:48:12.589Z,4.78
2023-05-20T05:50:43.566Z,4.78
2023-05-20T05:53:11.941Z,4.85
2023-05-20T05:55:41.957Z,4.15
2023-05-20T05:58:09.398Z,4.95
2023-05-20T06:00:37.879Z,5.07
2023-05-20T06:03:05.790Z,5.05
2023-05-20T06:05:36.914Z,5.63
2023-05-20T06:08:04.992Z,4.95
2023-05-20T06:10:34.443Z,5.63
2023-05-20T06:13:01.816Z,5.13
2023-05-20T06:15:29.542Z,5.60
2023-05-20T06:17:57.415Z,5.18
2023-05-20T06:20:26.447Z,5.53
2023-05-20T06:22:53.762Z,4.85
2023-05-20T06:25:23.198Z,5.35
2023-05-20T06:27:51.265Z,5.45
2023-05-20T06:30:20.931Z,5.95
2023-05-20T06:32:48.665Z,7.20
2023-05-20T06:35:16.987Z,5.97
2023-05-20T06:37:44.417Z,7.13
2023-05-20T06:40:12.956Z,6.43
2023-05-20T06:42:41.422Z,7.00
2023-05-20T06:45:09.267Z,6.78
2023-05-20T06:48:03.755Z,6.45
2023-05-20T06:50:31.474Z,7.03
2023-05-20T06:52:59.094Z,6.90
2023-05-20T06:55:27.496Z,6.47
2023-05-20T06:57:54.930Z,7.07
2023-05-20T07:00:22.556Z,6.75
2023-05-20T07:02:51.949Z,5.88
2023-05-20T07:05:20.818Z,6.38
2023-05-20T07:07:48.219Z,6.00
2023-05-20T07:10:15.874Z,6.07
2023-05-20T07:12:43.863Z,6.43
2023-05-20T07:15:11.546Z,5.45
2023-05-20T07:17:40.572Z,6.25
2023-05-20T07:20:08.600Z,6.13
2023-05-20T07:22:38.375Z,4.78
2023-05-20T07:25:15.258Z,5.90
2023-05-20T07:27:42.840Z,6.10
2023-05-20T07:30:10.784Z,5.28
2023-05-20T07:32:38.775Z,6.13
2023-05-20T07:35:08.148Z,6.15
2023-05-20T07:37:36.040Z,5.28
2023-05-20T07:40:05.460Z,5.20
2023-05-20T07:42:32.992Z,6.15
2023-05-20T07:45:02.276Z,6.03
2023-05-20T07:47:32.872Z,6.60
2023-05-20T07:50:00.882Z,6.13
2023-05-20T07:52:32.106Z,5.88
2023-05-20T07:55:03.874Z,6.40
2023-05-20T07:57:31.477Z,6.80
2023-05-20T07:59:58.966Z,6.75
2023-05-20T08:02:27.903Z,6.82
2023-05-20T08:04:56.175Z,6.35
2023-05-20T08:07:23.817Z,7.43
2023-05-20T08:09:54.368Z,6.53
2023-05-20T08:12:22.350Z,5.55
2023-05-20T08:14:50.796Z,5.47
2023-05-20T08:17:18.832Z,4.65
2023-05-20T08:19:46.454Z,4.70
2023-05-20T08:22:14.989Z,4.78
2023-05-20T08:24:42.753Z,5.20
2023-05-20T08:27:10.979Z,5.15
2023-05-20T08:29:38.367Z,5.00
2023-05-20T08:32:06.474Z,5.18
2023-05-20T08:34:35.291Z,5.25
2023-05-20T08:37:03.117Z,5.70
2023-05-20T08:39:30.449Z,5.50
2023-05-20T08:41:58.667Z,5.72
2023-05-20T08:44:28.265Z,6.20
2023-05-20T08:46:57.525Z,5.72
2023-05-20T08:49:25.140Z,5.63
2023-05-20T08:51:53.208Z,6.07
2023-05-20T08:54:24.172Z,6.30
2023-05-20T08:56:54.283Z,6.70
2023-05-20T08:59:22.348Z,6.03
2023-05-20T09:01:50.179Z,6.85
2023-05-20T09:04:17.882Z,6.50
2023-05-20T09:06:47.222Z,6.53
2023-05-20T09:09:14.912Z,6.25
2023-05-20T09:11:42.811Z,7.10
2023-05-20T09:14:10.229Z,6.95
2023-05-20T09:16:40.354Z,7.10
2023-05-20T09:19:09.767Z,6.45
2023-05-20T09:21:38.961Z,6.72
2023-05-20T09:24:06.690Z,6.75
2023-05-20T09:26:34.597Z,6.97
2023-05-20T09:29:01.919Z,7.28
2023-05-20T09:31:34.077Z,7.38
2023-05-20T09:34:02.289Z,7.55
2023-05-20T09:36:31.868Z,7.25
2023-05-20T09:39:05.642Z,7.22
2023-05-20T09:41:38.426Z,7.70
2023-05-20T09:44:09.414Z,7.78
2023-05-20T09:46:38.622Z,7.43
2023-05-20T09:49:07.928Z,7.82
2023-05-20T09:51:35.947Z,7.90
2023-05-20T09:54:05.158Z,7.28
2023-05-20T09:56:34.667Z,8.15
2023-05-20T09:59:05.429Z,7.97
2023-05-20T10:01:32.774Z,8.15
2023-05-20T10:04:01.253Z,8.73
2023-05-20T10:06:48.718Z,8.38
2023-05-20T10:09:55.361Z,8.60
2023-05-20T10:12:55.953Z,8.70
2023-05-20T10:15:52.597Z,8.00
2023-05-20T10:19:02.917Z,8.70
2023-05-20T10:21:31.533Z,8.05
2023-05-20T10:24:10.654Z,8.50
2023-05-20T10:26:39.129Z,8.77
2023-05-20T10:29:20.357Z,7.65
2023-05-20T10:31:52.419Z,8.15
2023-05-20T10:34:23.292Z,8.13
2023-05-20T10:36:57.852Z,8.35
2023-05-20T10:39:31.159Z,8.02
2023-05-20T10:42:11.530Z,8.10
2023-05-20T10:44:42.830Z,9.02
2023-05-20T10:49:48.451Z,9.65
2023-05-20T10:52:17.992Z,9.30
2023-05-20T10:54:57.337Z,10.02
2023-05-20T10:57:27.276Z,9.95
2023-05-20T10:59:56.343Z,10.50
2023-05-20T11:02:26.961Z,10.40
2023-05-20T11:04:58.485Z,11.07
2023-05-20T11:07:27.346Z,11.25
2023-05-20T11:10:08.437Z,11.38
2023-05-20T11:12:36.007Z,11.05
2023-05-20T11:15:05.112Z,10.48
2023-05-20T11:17:33.456Z,10.98
2023-05-20T11:20:02.626Z,10.63
2023-05-20T11:22:30.275Z,11.23
2023-05-20T11:24:59.904Z,11.40
2023-05-20T11:27:29.278Z,10.85
2023-05-20T11:29:58.157Z,10.32
2023-05-20T11:32:27.028Z,11.88
2023-05-20T11:34:54.672Z,11.07
2023-05-20T11:37:24.287Z,11.18
2023-05-20T11:40:10.256Z,11.45
2023-05-20T11:42:37.729Z,11.60
2023-05-20T11:45:05.898Z,11.00
2023-05-20T11:47:33.440Z,10.75
2023-05-20T11:50:04.893Z,11.15
2023-05-20T11:52:34.862Z,11.02
2023-05-20T11:55:02.422Z,11.00
2023-05-20T11:57:31.680Z,10.73
2023-05-20T11:59:59.862Z,10.43
2023-05-20T12:02:27.295Z,11.77
2023-05-20T12:04:54.632Z,10.88
2023-05-20T12:07:23.427Z,10.73
2023-05-20T12:09:50.804Z,10.95
2023-05-20T12:12:18.070Z,11.32
2023-05-20T12:14:45.381Z,10.90
2023-05-20T12:17:12.710Z,11.45
2023-05-20T12:19:41.935Z,11.82
2023-05-20T12:22:09.703Z,11.23
2023-05-20T12:24:37.652Z,11.98
2023-05-20T12:27:06.363Z,11.35
2023-05-20T12:29:34.098Z,11.50
2023-05-20T12:32:01.671Z,11.68
2023-05-20T12:34:29.339Z,11.93
2023-05-20T12:36:57.273Z,11.32
2023-05-20T12:39:24.608Z,11.57
2023-05-20T12:41:52.456Z,10.93
2023-05-20T12:44:21.521Z,12.00
2023-05-20T12:46:49.028Z,10.70
2023-05-20T12:49:20.461Z,11.10
2023-05-20T12:51:48.238Z,10.82
2023-05-20T12:54:17.192Z,10.80
2023-05-20T12:56:47.589Z,10.63
2023-05-20T12:59:15.617Z,10.32
2023-05-20T13:01:43.270Z,10.95
2023-05-20T13:04:11.068Z,11.00
2023-05-20T13:06:38.518Z,10.88
2023-05-20T13:09:06.236Z,10.23
2023-05-20T13:11:34.085Z,9.95
2023-05-20T13:14:01.549Z,10.70
2023-05-20T13:16:28.975Z,10.60
2023-05-20T13:18:56.399Z,11.32
2023-05-20T13:21:23.877Z,11.18
2023-05-20T13:23:51.544Z,10.65
2023-05-20T13:26:18.938Z,11.13
2023-05-20T13:28:46.350Z,10.85
2023-05-20T13:31:13.716Z,10.95
2023-05-20T13:33:41.293Z,11.73
2023-05-20T13:36:08.684Z,11.20
2023-05-20T13:38:37.423Z,11.73
2023-05-20T13:41:05.119Z,11.27
2023-05-20T13:43:33.317Z,11.30
2023-05-20T13:46:01.284Z,12.30
2023-05-20T13:48:29.564Z,11.80
2023-05-20T13:50:56.907Z,12.45
2023-05-20T13:53:24.282Z,12.27
2023-05-20T13:55:51.617Z,12.88
2023-05-20T13:58:19.082Z,12.60
2023-05-20T14:00:47.175Z,13.60
2023-05-20T14:03:15.058Z,13.27
2023-05-20T14:05:42.720Z,14.15
2023-05-20T14:08:10.187Z,13.00
2023-05-20T14:10:37.634Z,13.65
2023-05-20T14:13:06.294Z,13.07
2023-05-20T14:15:34.895Z,13.50
2023-05-20T14:18:02.323Z,14.00
2023-05-20T14:20:29.874Z,12.88
2023-05-20T14:22:57.438Z,13.15
2023-05-20T14:25:24.725Z,13.88
2023-05-20T14:27:52.170Z,13.48
2023-05-20T14:30:19.512Z,13.38
2023-05-20T14:32:46.897Z,12.75
2023-05-20T14:35:14.282Z,13.40
2023-05-20T14:37:41.680Z,13.02
2023-05-20T14:40:09.444Z,13.32
2023-05-20T14:42:37.585Z,13.40
2023-05-20T14:45:05.763Z,13.65
2023-05-20T14:47:33.770Z,13.18
2023-05-20T14:50:01.242Z,13.10
2023-05-20T14:52:28.608Z,13.65
2023-05-20T14:54:56.961Z,13.20
2023-05-20T14:57:24.439Z,13.70
2023-05-20T14:59:52.570Z,13.90
2023-05-20T15:02:20.517Z,12.88
2023-05-20T15:04:48.708Z,13.88
2023-05-20T15:07:16.795Z,12.73
2023-05-20T15:09:44.173Z,12.85
2023-05-20T15:12:11.710Z,13.55
2023-05-20T15:14:39.010Z,13.13
2023-05-20T15:17:06.604Z,12.77
2023-05-20T15:19:34.288Z,11.63
2023-05-20T15:22:01.841Z,12.82
2023-05-20T15:24:29.526Z,13.32
2023-05-20T15:26:56.961Z,13.30
2023-05-20T15:29:24.704Z,13.40
2023-05-20T15:31:52.152Z,17.92
2023-05-20T15:34:20.554Z,19.08
2023-05-20T15:36:49.085Z,13.82
2023-05-20T15:39:16.634Z,12.70
2023-05-20T15:41:44.062Z,13.75
2023-05-20T15:44:12.083Z,12.45
2023-05-20T15:46:39.546Z,12.57
2023-05-20T15:49:07.212Z,13.25
2023-05-20T15:51:34.537Z,13.15
2023-05-20T15:54:01.838Z,13.45
2023-05-20T15:56:30.070Z,30.30
2023-05-20T15:58:57.510Z,30.00
2023-05-20T16:01:27.183Z,21.58
2023-05-20T16:03:57.681Z,16.05
2023-05-20T16:06:25.851Z,14.82
2023-05-20T16:08:53.166Z,14.20
2023-05-20T16:11:21.418Z,12.65
2023-05-20T16:13:48.775Z,12.85
2023-05-20T16:16:16.676Z,11.63
2023-05-20T16:18:44.133Z,12.50
2023-05-20T16:21:11.598Z,13.48
2023-05-20T16:23:39.007Z,12.93
2023-05-20T16:26:07.121Z,15.27
2023-05-20T16:28:34.510Z,15.00
2023-05-20T16:31:01.936Z,14.27
2023-05-20T16:33:30.211Z,14.20
2023-05-20T16:35:57.662Z,13.82
2023-05-20T16:38:25.174Z,12.68
2023-05-20T16:40:52.771Z,13.80
2023-05-20T16:43:20.223Z,13.55
2023-05-20T16:45:47.775Z,12.70
2023-05-20T16:48:15.612Z,12.38
2023-05-20T16:50:43.211Z,12.07
2023-05-20T16:53:10.627Z,13.57
2023-05-20T16:55:38.104Z,12.45
2023-05-20T16:58:05.972Z,12.20
2023-05-20T17:00:33.851Z,12.95
2023-05-20T17:03:04.143Z,11.95
2023-05-20T17:05:34.774Z,11.85
2023-05-20T17:08:02.584Z,12.65
2023-05-20T17:10:30.375Z,11.98
2023-05-20T17:12:58.209Z,12.50
2023-05-20T17:15:25.774Z,12.45
2023-05-20T17:17:53.688Z,13.40
2023-05-20T17:20:23.772Z,13.85
2023-05-20T17:22:51.185Z,13.93
2023-05-20T17:25:18.797Z,12.63
2023-05-20T17:27:46.743Z,13.25
2023-05-20T17:30:14.234Z,13.65
2023-05-20T17:32:41.901Z,13.55
2023-05-20T17:35:09.796Z,13.55
2023-05-20T17:37:40.788Z,14.32
2023-05-20T17:40:08.943Z,14.05
2023-05-20T17:42:39.388Z,13.32
2023-05-20T17:45:08.216Z,13.32
2023-05-20T17:47:36.442Z,14.68
2023-05-20T17:50:04.441Z,14.65
2023-05-20T17:52:32.027Z,15.40
2023-05-20T17:54:59.388Z,16.73
2023-05-20T17:57:28.181Z,16.30
2023-05-20T17:59:55.644Z,17.48
2023-05-20T18:02:23.167Z,17.58
2023-05-20T18:04:50.481Z,16.83
2023-05-20T18:07:17.882Z,17.05
2023-05-20T18:09:45.410Z,17.27
2023-05-20T18:12:12.789Z,17.13
2023-05-20T18:14:40.157Z,15.88
2023-05-20T18:17:07.517Z,16.48
2023-05-20T18:19:34.832Z,16.98
2023-05-20T18:22:02.770Z,18.35
2023-05-20T18:24:30.623Z,16.48
2023-05-20T18:26:58.016Z,17.70
2023-05-20T18:29:27.131Z,18.13
2023-05-20T18:31:54.585Z,18.65
2023-05-20T18:34:22.116Z,21.67
2023-05-20T18:36:49.780Z,20.70
2023-05-20T18:39:20.697Z,20.25
2023-05-20T18:41:48.623Z,20.02
2023-05-20T18:44:18.081Z,19.52
2023-05-20T18:46:46.214Z,18.55
2023-05-20T18:49:13.552Z,19.38
2023-05-20T18:51:41.707Z,17.45
2023-05-20T18:54:09.052Z,17.60
2023-05-20T18:56:36.504Z,17.67
2023-05-20T18:59:04.059Z,18.50
2023-05-20T19:01:36.245Z,17.60
2023-05-20T19:04:03.925Z,17.65
2023-05-20T19:06:34.857Z,17.60
2023-05-20T19:09:02.286Z,18.05
2023-05-20T19:11:30.349Z,18.17
2023-05-20T19:13:58.329Z,20.27
2023-05-20T19:16:28.692Z,17.95
2023-05-20T19:18:56.064Z,19.25
2023-05-20T19:21:23.662Z,17.25
2023-05-20T19:23:51.577Z,16.80
2023-05-20T19:26:18.942Z,16.83
2023-05-20T19:29:18.398Z,16.42
2023-05-20T19:32:05.315Z,16.55
2023-05-20T19:34:32.639Z,15.15
2023-05-20T19:37:00.405Z,15.23
2023-05-20T19:39:27.884Z,14.68
2023-05-20T19:41:55.572Z,14.40
2023-05-20T19:44:23.545Z,14.05
2023-05-20T19:46:51.386Z,13.60
2023-05-20T19:49:18.870Z,14.52
2023-05-20T19:51:46.629Z,15.07
2023-05-20T19:54:13.996Z,14.00
2023-05-20T19:56:41.395Z,15.10
2023-05-20T19:59:08.702Z,14.50
2023-05-20T20:01:36.110Z,13.43
2023-05-20T20:04:03.587Z,14.10
2023-05-20T20:06:30.908Z,15.75
2023-05-20T20:08:58.926Z,17.27
2023-05-20T20:11:26.704Z,18.10
2023-05-20T20:13:54.123Z,18.75
2023-05-20T20:16:21.498Z,19.65
2023-05-20T20:18:48.942Z,19.63
2023-05-20T20:21:16.256Z,20.30
2023-05-20T20:23:43.699Z,21.42
2023-05-20T20:26:13.594Z,20.50
2023-05-20T20:28:41.085Z,20.98
2023-05-20T20:31:08.395Z,21.25
2023-05-20T20:33:36.148Z,22.30
2023-05-20T20:36:03.646Z,23.05
2023-05-20T20:38:31.416Z,22.70
2023-05-20T20:40:59.329Z,22.83
2023-05-20T20:43:28.838Z,21.90
2023-05-20T20:45:56.637Z,23.80
2023-05-20T20:48:27.400Z,22.70
2023-05-20T20:50:54.910Z,24.27
2023-05-20T20:53:22.353Z,22.00
2023-05-20T20:55:51.526Z,22.88
2023-05-20T20:58:19.047Z,21.65
2023-05-20T21:00:48.531Z,21.90
2023-05-20T21:03:16.189Z,21.60
2023-05-20T21:05:44.478Z,20.88
2023-05-20T21:08:13.055Z,20.55
2023-05-20T21:10:40.702Z,21.23
2023-05-20T21:13:08.125Z,21.77
2023-05-20T21:15:35.860Z,22.88
2023-05-20T21:18:03.704Z,22.13
2023-05-20T21:20:31.100Z,22.48
2023-05-20T21:22:58.418Z,22.40
2023-05-20T21:25:25.961Z,21.48
2023-05-20T21:27:53.201Z,22.75
2023-05-20T21:30:20.840Z,23.65
2023-05-20T21:32:48.481Z,23.35
2023-05-20T21:35:15.925Z,23.10
2023-05-20T21:37:43.765Z,23.80
2023-05-20T21:40:12.090Z,23.33
2023-05-20T21:42:39.443Z,23.33
2023-05-20T21:45:07.669Z,25.27
2023-05-20T21:47:35.034Z,23.30
2023-05-20T21:50:06.280Z,23.75
2023-05-20T21:52:34.169Z,23.23
2023-05-20T21:55:02.575Z,22.42
2023-05-20T21:57:30.243Z,23.10
2023-05-20T21:59:57.889Z,23.05
2023-05-20T22:02:28.239Z,23.85
2023-05-20T22:04:58.014Z,23.40
2023-05-20T22:07:27.353Z,21.73
2023-05-20T22:09:54.649Z,22.13
2023-05-20T22:12:22.909Z,20.63
2023-05-20T22:14:50.346Z,22.38
2023-05-20T22:17:18.081Z,22.48
2023-05-20T22:19:47.737Z,21.67
2023-05-20T22:22:15.886Z,19.67
2023-05-20T22:24:43.308Z,19.67
2023-05-20T22:27:10.683Z,18.95
2023-05-20T22:29:38.131Z,19.80
2023-05-20T22:32:06.328Z,19.48
2023-05-20T22:34:34.244Z,20.50
2023-05-20T22:37:02.196Z,18.90
2023-05-20T22:39:30.367Z,19.83
2023-05-20T22:41:58.349Z,20.13
2023-05-20T22:44:25.631Z,20.45
2023-05-20T22:46:52.917Z,20.80
2023-05-20T22:49:24.104Z,20.60
2023-05-20T22:51:52.996Z,20.50
2023-05-20T22:54:20.532Z,18.80
2023-05-20T22:56:48.124Z,19.52
2023-05-20T22:59:15.526Z,25.00
2023-05-20T23:01:44.991Z,21.48
2023-05-20T23:04:12.329Z,20.08
2023-05-20T23:06:40.174Z,19.08
2023-05-20T23:09:08.629Z,17.33
2023-05-20T23:11:36.012Z,17.05
2023-05-20T23:14:03.476Z,16.98
2023-05-20T23:16:31.751Z,16.67
2023-05-20T23:18:59.259Z,16.55
2023-05-20T23:21:26.599Z,17.02
2023-05-20T23:23:53.908Z,16.88
2023-05-20T23:26:21.820Z,15.57
2023-05-20T23:28:49.448Z,15.80
2023-05-20T23:31:16.753Z,15.25
2023-05-20T23:33:44.234Z,15.27
2023-05-20T23:36:12.403Z,14.82
2023-05-20T23:38:40.027Z,14.63
2023-05-20T23:41:07.413Z,14.40
2023-05-20T23:43:34.668Z,14.52
2023-05-20T23:46:02.138Z,14.70
2023-05-20T23:48:29.600Z,15.32
2023-05-20T23:50:57.064Z,14.60
2023-05-20T23:53:25.522Z,15.00
2023-05-20T23:55:52.792Z,14.80
2023-05-20T23:58:20.206Z,20.15
